sensor_id;sensor_type;location;lat;lon;timestamp;P1;durP1;ratioP1;P2;durP2;ratioP2
22270;SDS011;11304;53.520;10.104;2023-04-24T00:00:15;5.65;;;4.85;;
22270;SDS011;11304;53.520;10.104;2023-04-24T00:02:42;6.40;;;5.00;;
22270;SDS011;11304;53.520;10.104;2023-04-24T00:05:12;6.43;;;5.40;;
22270;SDS011;11304;53.520;10.104;2023-04-24T00:07:42;7.80;;;4.85;;
22270;SDS011;11304;53.520;10.104;2023-04-24T00:10:09;6.30;;;5.10;;
22270;SDS011;11304;53.520;10.104;2023-04-24T00:12:36;5.63;;;4.95;;
22270;SDS011;11304;53.520;10.104;2023-04-24T00:15:02;5.93;;;4.97;;
22270;SDS011;11304;53.520;10.104;2023-04-24T00:17:28;11.00;;;4.80;;
22270;SDS011;11304;53.520;10.104;2023-04-24T00:19:54;5.45;;;4.82;;
22270;SDS011;11304;53.520;10.104;2023-04-24T00:22:27;5.47;;;4.60;;
22270;SDS011;11304;53.520;10.104;2023-04-24T00:24:53;6.75;;;4.75;;
22270;SDS011;11304;53.520;10.104;2023-04-24T00:27:19;5.57;;;4.95;;
22270;SDS011;11304;53.520;10.104;2023-04-24T00:29:45;6.82;;;4.68;;
22270;SDS011;11304;53.520;10.104;2023-04-24T00:32:12;5.85;;;4.90;;
22270;SDS011;11304;53.520;10.104;2023-04-24T00:34:38;6.72;;;5.18;;
22270;SDS011;11304;53.520;10.104;2023-04-24T00:37:03;6.45;;;4.75;;
22270;SDS011;11304;53.520;10.104;2023-04-24T00:39:30;6.18;;;5.53;;
22270;SDS011;11304;53.520;10.104;2023-04-24T00:41:56;6.50;;;5.15;;
22270;SDS011;11304;53.520;10.104;2023-04-24T00:44:21;5.38;;;4.88;;
22270;SDS011;11304;53.520;10.104;2023-04-24T00:46:47;6.85;;;5.22;;
22270;SDS011;11304;53.520;10.104;2023-04-24T00:49:17;6.32;;;5.18;;
22270;SDS011;11304;53.520;10.104;2023-04-24T00:51:44;6.90;;;5.57;;
22270;SDS011;11304;53.520;10.104;2023-04-24T00:54:10;6.47;;;5.28;;
22270;SDS011;11304;53.520;10.104;2023-04-24T00:56:37;6.32;;;5.72;;
22270;SDS011;11304;53.520;10.104;2023-04-24T00:59:03;7.85;;;5.55;;
22270;SDS011;11304;53.520;10.104;2023-04-24T01:01:29;8.85;;;6.28;;
22270;SDS011;11304;53.520;10.104;2023-04-24T01:03:55;6.90;;;5.95;;
22270;SDS011;11304;53.520;10.104;2023-04-24T01:06:22;6.55;;;5.82;;
22270;SDS011;11304;53.520;10.104;2023-04-24T01:08:52;6.75;;;6.03;;
22270;SDS011;11304;53.520;10.104;2023-04-24T01:11:18;6.75;;;6.05;;
22270;SDS011;11304;53.520;10.104;2023-04-24T01:13:43;10.90;;;6.20;;
22270;SDS011;11304;53.520;10.104;2023-04-24T01:16:12;7.05;;;5.72;;
22270;SDS011;11304;53.520;10.104;2023-04-24T01:18:38;8.10;;;6.07;;
22270;SDS011;11304;53.520;10.104;2023-04-24T01:21:04;6.22;;;5.40;;
22270;SDS011;11304;53.520;10.104;2023-04-24T01:23:32;8.20;;;7.00;;
22270;SDS011;11304;53.520;10.104;2023-04-24T01:25:57;8.20;;;6.03;;
22270;SDS011;11304;53.520;10.104;2023-04-24T01:28:23;7.15;;;6.43;;
22270;SDS011;11304;53.520;10.104;2023-04-24T01:30:49;8.80;;;5.85;;
22270;SDS011;11304;53.520;10.104;2023-04-24T01:33:15;6.25;;;5.65;;
22270;SDS011;11304;53.520;10.104;2023-04-24T01:35:41;7.88;;;6.47;;
22270;SDS011;11304;53.520;10.104;2023-04-24T01:38:07;6.88;;;5.25;;
22270;SDS011;11304;53.520;10.104;2023-04-24T01:40:33;8.15;;;5.68;;
22270;SDS011;11304;53.520;10.104;2023-04-24T01:42:59;5.85;;;5.25;;
22270;SDS011;11304;53.520;10.104;2023-04-24T01:45:25;5.75;;;5.25;;
22270;SDS011;11304;53.520;10.104;2023-04-24T01:47:51;5.88;;;5.10;;
22270;SDS011;11304;53.520;10.104;2023-04-24T01:50:17;6.78;;;5.47;;
22270;SDS011;11304;53.520;10.104;2023-04-24T01:52:43;7.32;;;5.15;;
22270;SDS011;11304;53.520;10.104;2023-04-24T01:55:09;5.82;;;4.85;;
22270;SDS011;11304;53.520;10.104;2023-04-24T01:57:35;5.68;;;4.40;;
22270;SDS011;11304;53.520;10.104;2023-04-24T02:00:01;4.05;;;3.65;;
22270;SDS011;11304;53.520;10.104;2023-04-24T02:02:31;5.53;;;3.55;;
22270;SDS011;11304;53.520;10.104;2023-04-24T02:04:57;4.93;;;3.65;;
22270;SDS011;11304;53.520;10.104;2023-04-24T02:07:23;5.18;;;3.20;;
22270;SDS011;11304;53.520;10.104;2023-04-24T02:09:49;4.03;;;2.80;;
22270;SDS011;11304;53.520;10.104;2023-04-24T02:12:15;3.83;;;3.20;;
22270;SDS011;11304;53.520;10.104;2023-04-24T02:14:42;4.22;;;2.88;;
22270;SDS011;11304;53.520;10.104;2023-04-24T02:17:08;5.35;;;3.47;;
22270;SDS011;11304;53.520;10.104;2023-04-24T02:19:34;4.43;;;2.90;;
22270;SDS011;11304;53.520;10.104;2023-04-24T02:22:00;2.92;;;2.60;;
22270;SDS011;11304;53.520;10.104;2023-04-24T02:24:26;3.00;;;2.70;;
22270;SDS011;11304;53.520;10.104;2023-04-24T02:26:51;7.10;;;2.72;;
22270;SDS011;11304;53.520;10.104;2023-04-24T02:29:17;3.65;;;2.45;;
22270;SDS011;11304;53.520;10.104;2023-04-24T02:31:43;3.03;;;2.65;;
22270;SDS011;11304;53.520;10.104;2023-04-24T02:34:08;3.50;;;2.42;;
22270;SDS011;11304;53.520;10.104;2023-04-24T02:36:34;4.18;;;2.35;;
22270;SDS011;11304;53.520;10.104;2023-04-24T02:39:00;3.40;;;2.03;;
22270;SDS011;11304;53.520;10.104;2023-04-24T02:41:26;3.28;;;2.40;;
22270;SDS011;11304;53.520;10.104;2023-04-24T02:43:56;2.65;;;2.20;;
22270;SDS011;11304;53.520;10.104;2023-04-24T02:46:23;3.08;;;2.28;;
22270;SDS011;11304;53.520;10.104;2023-04-24T02:48:48;2.90;;;2.08;;
22270;SDS011;11304;53.520;10.104;2023-04-24T02:51:14;2.60;;;1.95;;
22270;SDS011;11304;53.520;10.104;2023-04-24T02:53:40;4.18;;;2.05;;
22270;SDS011;11304;53.520;10.104;2023-04-24T02:56:06;3.97;;;2.20;;
22270;SDS011;11304;53.520;10.104;2023-04-24T02:58:31;2.55;;;1.67;;
22270;SDS011;11304;53.520;10.104;2023-04-24T03:00:57;4.32;;;2.00;;
22270;SDS011;11304;53.520;10.104;2023-04-24T03:03:23;2.58;;;1.60;;
22270;SDS011;11304;53.520;10.104;2023-04-24T03:05:48;2.20;;;1.45;;
22270;SDS011;11304;53.520;10.104;2023-04-24T03:08:15;2.88;;;1.60;;
22270;SDS011;11304;53.520;10.104;2023-04-24T03:10:41;3.15;;;1.67;;
22270;SDS011;11304;53.520;10.104;2023-04-24T03:13:06;3.47;;;1.80;;
22270;SDS011;11304;53.520;10.104;2023-04-24T03:15:32;2.03;;;1.50;;
22270;SDS011;11304;53.520;10.104;2023-04-24T03:17:58;3.10;;;1.63;;
22270;SDS011;11304;53.520;10.104;2023-04-24T03:20:24;1.83;;;1.58;;
22270;SDS011;11304;53.520;10.104;2023-04-24T03:22:49;2.58;;;1.48;;
22270;SDS011;11304;53.520;10.104;2023-04-24T03:25:15;1.95;;;1.40;;
22270;SDS011;11304;53.520;10.104;2023-04-24T03:27:41;3.38;;;1.52;;
22270;SDS011;11304;53.520;10.104;2023-04-24T03:30:07;1.88;;;1.60;;
22270;SDS011;11304;53.520;10.104;2023-04-24T03:32:33;4.00;;;1.77;;
22270;SDS011;11304;53.520;10.104;2023-04-24T03:34:58;2.35;;;1.48;;
22270;SDS011;11304;53.520;10.104;2023-04-24T03:37:24;3.72;;;1.60;;
22270;SDS011;11304;53.520;10.104;2023-04-24T03:39:51;5.40;;;1.40;;
22270;SDS011;11304;53.520;10.104;2023-04-24T03:42:17;1.80;;;1.40;;
22270;SDS011;11304;53.520;10.104;2023-04-24T03:44:43;2.55;;;1.50;;
22270;SDS011;11304;53.520;10.104;2023-04-24T03:47:08;2.22;;;1.48;;
22270;SDS011;11304;53.520;10.104;2023-04-24T03:49:34;1.35;;;1.23;;
22270;SDS011;11304;53.520;10.104;2023-04-24T03:52:00;1.52;;;1.15;;
22270;SDS011;11304;53.520;10.104;2023-04-24T03:54:25;2.60;;;1.65;;
22270;SDS011;11304;53.520;10.104;2023-04-24T03:56:51;1.80;;;1.20;;
22270;SDS011;11304;53.520;10.104;2023-04-24T03:59:17;1.40;;;1.17;;
22270;SDS011;11304;53.520;10.104;2023-04-24T04:01:43;1.90;;;1.50;;
22270;SDS011;11304;53.520;10.104;2023-04-24T04:04:10;5.40;;;1.25;;
22270;SDS011;11304;53.520;10.104;2023-04-24T04:06:36;3.33;;;1.50;;
22270;SDS011;11304;53.520;10.104;2023-04-24T04:09:02;2.28;;;1.50;;
22270;SDS011;11304;53.520;10.104;2023-04-24T04:11:28;3.10;;;1.70;;
22270;SDS011;11304;53.520;10.104;2023-04-24T04:13:54;3.65;;;1.60;;
22270;SDS011;11304;53.520;10.104;2023-04-24T04:16:21;5.28;;;1.65;;
22270;SDS011;11304;53.520;10.104;2023-04-24T04:18:47;1.60;;;1.20;;
22270;SDS011;11304;53.520;10.104;2023-04-24T04:21:13;2.72;;;1.35;;
22270;SDS011;11304;53.520;10.104;2023-04-24T04:23:39;2.55;;;1.52;;
22270;SDS011;11304;53.520;10.104;2023-04-24T04:26:05;1.52;;;1.27;;
22270;SDS011;11304;53.520;10.104;2023-04-24T04:28:31;1.80;;;1.40;;
22270;SDS011;11304;53.520;10.104;2023-04-24T04:30:57;1.35;;;1.23;;
22270;SDS011;11304;53.520;10.104;2023-04-24T04:33:23;2.72;;;1.40;;
22270;SDS011;11304;53.520;10.104;2023-04-24T04:35:50;2.90;;;1.25;;
22270;SDS011;11304;53.520;10.104;2023-04-24T04:38:21;3.50;;;1.48;;
22270;SDS011;11304;53.520;10.104;2023-04-24T04:40:48;1.73;;;1.25;;
22270;SDS011;11304;53.520;10.104;2023-04-24T04:43:13;1.30;;;1.20;;
22270;SDS011;11304;53.520;10.104;2023-04-24T04:45:42;2.47;;;1.17;;
22270;SDS011;11304;53.520;10.104;2023-04-24T04:48:08;2.08;;;1.33;;
22270;SDS011;11304;53.520;10.104;2023-04-24T04:50:36;1.55;;;1.10;;
22270;SDS011;11304;53.520;10.104;2023-04-24T04:53:02;2.80;;;1.00;;
22270;SDS011;11304;53.520;10.104;2023-04-24T04:55:27;1.33;;;1.10;;
22270;SDS011;11304;53.520;10.104;2023-04-24T04:57:53;2.83;;;1.15;;
22270;SDS011;11304;53.520;10.104;2023-04-24T05:00:20;1.77;;;0.90;;
22270;SDS011;11304;53.520;10.104;2023-04-24T05:02:49;1.33;;;1.02;;
22270;SDS011;11304;53.520;10.104;2023-04-24T05:05:14;2.03;;;0.88;;
22270;SDS011;11304;53.520;10.104;2023-04-24T05:07:42;1.88;;;1.00;;
22270;SDS011;11304;53.520;10.104;2023-04-24T05:10:07;1.45;;;0.80;;
22270;SDS011;11304;53.520;10.104;2023-04-24T05:12:33;2.85;;;1.20;;
22270;SDS011;11304;53.520;10.104;2023-04-24T05:14:59;1.30;;;0.90;;
22270;SDS011;11304;53.520;10.104;2023-04-24T05:17:25;1.23;;;1.13;;
22270;SDS011;11304;53.520;10.104;2023-04-24T05:19:51;1.77;;;1.33;;
22270;SDS011;11304;53.520;10.104;2023-04-24T05:22:16;1.85;;;0.95;;
22270;SDS011;11304;53.520;10.104;2023-04-24T05:27:11;1.23;;;0.80;;
22270;SDS011;11304;53.520;10.104;2023-04-24T05:29:37;2.63;;;0.98;;
22270;SDS011;11304;53.520;10.104;2023-04-24T05:32:02;1.48;;;0.73;;
22270;SDS011;11304;53.520;10.104;2023-04-24T05:34:28;1.55;;;0.68;;
22270;SDS011;11304;53.520;10.104;2023-04-24T05:36:54;1.75;;;0.60;;
22270;SDS011;11304;53.520;10.104;2023-04-24T05:39:19;0.57;;;0.40;;
22270;SDS011;11304;53.520;10.104;2023-04-24T05:41:45;2.25;;;0.50;;
22270;SDS011;11304;53.520;10.104;2023-04-24T05:44:11;0.77;;;0.57;;
22270;SDS011;11304;53.520;10.104;2023-04-24T05:46:37;0.80;;;0.50;;
22270;SDS011;11304;53.520;10.104;2023-04-24T05:49:02;1.02;;;0.55;;
22270;SDS011;11304;53.520;10.104;2023-04-24T05:51:28;1.63;;;0.50;;
22270;SDS011;11304;53.520;10.104;2023-04-24T05:53:54;0.90;;;0.50;;
22270;SDS011;11304;53.520;10.104;2023-04-24T05:56:19;1.23;;;0.60;;
22270;SDS011;11304;53.520;10.104;2023-04-24T05:58:45;0.63;;;0.52;;
22270;SDS011;11304;53.520;10.104;2023-04-24T06:01:12;0.88;;;0.55;;
22270;SDS011;11304;53.520;10.104;2023-04-24T06:03:40;1.38;;;0.70;;
22270;SDS011;11304;53.520;10.104;2023-04-24T06:06:06;1.55;;;1.00;;
22270;SDS011;11304;53.520;10.104;2023-04-24T06:08:33;1.55;;;1.25;;
22270;SDS011;11304;53.520;10.104;2023-04-24T06:10:59;1.00;;;0.82;;
22270;SDS011;11304;53.520;10.104;2023-04-24T06:13:25;1.50;;;0.77;;
22270;SDS011;11304;53.520;10.104;2023-04-24T06:15:51;2.13;;;0.88;;
22270;SDS011;11304;53.520;10.104;2023-04-24T06:18:18;1.67;;;0.95;;
22270;SDS011;11304;53.520;10.104;2023-04-24T06:20:44;1.60;;;0.90;;
22270;SDS011;11304;53.520;10.104;2023-04-24T06:23:12;1.00;;;0.80;;
22270;SDS011;11304;53.520;10.104;2023-04-24T06:25:38;4.25;;;1.13;;
22270;SDS011;11304;53.520;10.104;2023-04-24T06:28:04;2.53;;;1.05;;
22270;SDS011;11304;53.520;10.104;2023-04-24T06:30:30;1.40;;;0.98;;
22270;SDS011;11304;53.520;10.104;2023-04-24T06:32:55;1.25;;;1.00;;
22270;SDS011;11304;53.520;10.104;2023-04-24T06:35:21;1.08;;;0.80;;
22270;SDS011;11304;53.520;10.104;2023-04-24T06:37:47;1.05;;;0.90;;
22270;SDS011;11304;53.520;10.104;2023-04-24T06:40:13;1.17;;;0.80;;
22270;SDS011;11304;53.520;10.104;2023-04-24T06:42:39;2.85;;;1.05;;
22270;SDS011;11304;53.520;10.104;2023-04-24T06:45:05;4.18;;;0.80;;
22270;SDS011;11304;53.520;10.104;2023-04-24T06:47:31;2.55;;;1.40;;
22270;SDS011;11304;53.520;10.104;2023-04-24T06:49:57;2.80;;;1.13;;
22270;SDS011;11304;53.520;10.104;2023-04-24T06:52:22;1.88;;;1.27;;
22270;SDS011;11304;53.520;10.104;2023-04-24T06:54:48;1.73;;;1.00;;
22270;SDS011;11304;53.520;10.104;2023-04-24T06:57:14;2.20;;;1.20;;
22270;SDS011;11304;53.520;10.104;2023-04-24T06:59:41;1.30;;;1.05;;
22270;SDS011;11304;53.520;10.104;2023-04-24T07:02:07;2.90;;;1.20;;
22270;SDS011;11304;53.520;10.104;2023-04-24T07:04:33;1.55;;;1.20;;
22270;SDS011;11304;53.520;10.104;2023-04-24T07:06:58;1.63;;;1.10;;
22270;SDS011;11304;53.520;10.104;2023-04-24T07:09:25;6.05;;;1.77;;
22270;SDS011;11304;53.520;10.104;2023-04-24T07:11:51;3.22;;;1.85;;
22270;SDS011;11304;53.520;10.104;2023-04-24T07:14:18;2.17;;;1.58;;
22270;SDS011;11304;53.520;10.104;2023-04-24T07:16:44;4.15;;;1.65;;
22270;SDS011;11304;53.520;10.104;2023-04-24T07:19:11;2.08;;;1.88;;
22270;SDS011;11304;53.520;10.104;2023-04-24T07:21:37;2.35;;;1.75;;
22270;SDS011;11304;53.520;10.104;2023-04-24T07:24:03;2.25;;;1.50;;
22270;SDS011;11304;53.520;10.104;2023-04-24T07:26:29;2.90;;;1.75;;
22270;SDS011;11304;53.520;10.104;2023-04-24T07:28:55;3.13;;;1.95;;
22270;SDS011;11304;53.520;10.104;2023-04-24T07:31:21;2.75;;;1.70;;
22270;SDS011;11304;53.520;10.104;2023-04-24T07:33:47;2.67;;;1.83;;
22270;SDS011;11304;53.520;10.104;2023-04-24T07:36:13;1.92;;;1.65;;
22270;SDS011;11304;53.520;10.104;2023-04-24T07:38:43;4.05;;;1.90;;
22270;SDS011;11304;53.520;10.104;2023-04-24T07:41:10;2.80;;;1.80;;
22270;SDS011;11304;53.520;10.104;2023-04-24T07:43:35;2.78;;;1.75;;
22270;SDS011;11304;53.520;10.104;2023-04-24T07:46:01;2.80;;;2.10;;
22270;SDS011;11304;53.520;10.104;2023-04-24T07:48:27;3.63;;;2.25;;
22270;SDS011;11304;53.520;10.104;2023-04-24T07:50:53;2.80;;;2.00;;
22270;SDS011;11304;53.520;10.104;2023-04-24T07:53:19;2.40;;;1.95;;
22270;SDS011;11304;53.520;10.104;2023-04-24T07:55:44;3.45;;;1.80;;
22270;SDS011;11304;53.520;10.104;2023-04-24T07:58:10;2.38;;;1.77;;
22270;SDS011;11304;53.520;10.104;2023-04-24T08:00:36;2.88;;;1.92;;
22270;SDS011;11304;53.520;10.104;2023-04-24T08:03:02;2.88;;;2.17;;
22270;SDS011;11304;53.520;10.104;2023-04-24T08:05:27;3.90;;;2.50;;
22270;SDS011;11304;53.520;10.104;2023-04-24T08:07:54;4.28;;;2.63;;
22270;SDS011;11304;53.520;10.104;2023-04-24T08:10:23;4.03;;;2.40;;
22270;SDS011;11304;53.520;10.104;2023-04-24T08:15:14;4.53;;;2.40;;
22270;SDS011;11304;53.520;10.104;2023-04-24T08:17:40;4.35;;;2.60;;
22270;SDS011;11304;53.520;10.104;2023-04-24T08:20:06;3.88;;;2.80;;
22270;SDS011;11304;53.520;10.104;2023-04-24T08:22:38;3.63;;;3.00;;
22270;SDS011;11304;53.520;10.104;2023-04-24T08:25:05;4.93;;;3.00;;
22270;SDS011;11304;53.520;10.104;2023-04-24T08:27:31;4.18;;;3.10;;
22270;SDS011;11304;53.520;10.104;2023-04-24T08:29:57;4.68;;;3.08;;
22270;SDS011;11304;53.520;10.104;2023-04-24T08:32:24;6.05;;;3.50;;
22270;SDS011;11304;53.520;10.104;2023-04-24T08:34:49;5.15;;;3.35;;
22270;SDS011;11304;53.520;10.104;2023-04-24T08:37:17;5.10;;;3.60;;
22270;SDS011;11304;53.520;10.104;2023-04-24T08:39:43;5.43;;;4.03;;
22270;SDS011;11304;53.520;10.104;2023-04-24T08:42:09;5.60;;;4.50;;
22270;SDS011;11304;53.520;10.104;2023-04-24T08:44:37;7.10;;;4.78;;
22270;SDS011;11304;53.520;10.104;2023-04-24T08:47:04;5.57;;;4.80;;
22270;SDS011;11304;53.520;10.104;2023-04-24T08:49:30;5.50;;;5.00;;
22270;SDS011;11304;53.520;10.104;2023-04-24T08:51:56;6.88;;;4.70;;
22270;SDS011;11304;53.520;10.104;2023-04-24T08:54:22;5.43;;;4.93;;
22270;SDS011;11304;53.520;10.104;2023-04-24T08:56:49;4.55;;;4.15;;
22270;SDS011;11304;53.520;10.104;2023-04-24T08:59:17;7.50;;;3.95;;
22270;SDS011;11304;53.520;10.104;2023-04-24T09:01:44;5.72;;;3.80;;
22270;SDS011;11304;53.520;10.104;2023-04-24T09:04:12;4.53;;;3.63;;
22270;SDS011;11304;53.520;10.104;2023-04-24T09:06:40;4.37;;;2.87;;
22270;SDS011;11304;53.520;10.104;2023-04-24T09:09:06;5.93;;;3.08;;
22270;SDS011;11304;53.520;10.104;2023-04-24T09:11:33;5.22;;;2.80;;
22270;SDS011;11304;53.520;10.104;2023-04-24T09:13:59;3.70;;;2.90;;
22270;SDS011;11304;53.520;10.104;2023-04-24T09:16:26;3.10;;;2.83;;
22270;SDS011;11304;53.520;10.104;2023-04-24T09:18:52;4.00;;;3.22;;
22270;SDS011;11304;53.520;10.104;2023-04-24T09:21:20;4.70;;;3.40;;
22270;SDS011;11304;53.520;10.104;2023-04-24T09:23:57;5.28;;;3.88;;
22270;SDS011;11304;53.520;10.104;2023-04-24T09:26:30;6.93;;;4.13;;
22270;SDS011;11304;53.520;10.104;2023-04-24T09:28:57;4.50;;;3.90;;
22270;SDS011;11304;53.520;10.104;2023-04-24T09:31:24;4.32;;;3.53;;
22270;SDS011;11304;53.520;10.104;2023-04-24T09:33:54;4.65;;;3.35;;
22270;SDS011;11304;53.520;10.104;2023-04-24T09:36:27;4.45;;;3.83;;
22270;SDS011;11304;53.520;10.104;2023-04-24T09:38:57;5.82;;;3.78;;
22270;SDS011;11304;53.520;10.104;2023-04-24T09:41:27;5.10;;;3.85;;
22270;SDS011;11304;53.520;10.104;2023-04-24T09:43:56;12.65;;;3.92;;
22270;SDS011;11304;53.520;10.104;2023-04-24T09:46:30;4.85;;;3.72;;
22270;SDS011;11304;53.520;10.104;2023-04-24T09:48:56;4.57;;;4.10;;
22270;SDS011;11304;53.520;10.104;2023-04-24T09:51:34;6.45;;;4.00;;
22270;SDS011;11304;53.520;10.104;2023-04-24T09:54:02;7.35;;;4.07;;
22270;SDS011;11304;53.520;10.104;2023-04-24T09:56:32;6.07;;;4.65;;
22270;SDS011;11304;53.520;10.104;2023-04-24T09:59:05;5.47;;;3.95;;
22270;SDS011;11304;53.520;10.104;2023-04-24T10:01:32;4.95;;;4.28;;
22270;SDS011;11304;53.520;10.104;2023-04-24T10:03:58;4.80;;;4.05;;
22270;SDS011;11304;53.520;10.104;2023-04-24T10:06:34;5.68;;;4.25;;
22270;SDS011;11304;53.520;10.104;2023-04-24T10:09:00;6.65;;;4.78;;
22270;SDS011;11304;53.520;10.104;2023-04-24T10:11:27;5.68;;;4.80;;
22270;SDS011;11304;53.520;10.104;2023-04-24T10:13:53;7.38;;;4.95;;
22270;SDS011;11304;53.520;10.104;2023-04-24T10:16:20;7.00;;;5.28;;
22270;SDS011;11304;53.520;10.104;2023-04-24T10:18:47;5.53;;;4.50;;
22270;SDS011;11304;53.520;10.104;2023-04-24T10:21:14;6.70;;;4.40;;
22270;SDS011;11304;53.520;10.104;2023-04-24T10:23:40;8.00;;;5.78;;
22270;SDS011;11304;53.520;10.104;2023-04-24T10:26:08;9.55;;;6.47;;
22270;SDS011;11304;53.520;10.104;2023-04-24T10:28:36;8.10;;;6.35;;
22270;SDS011;11304;53.520;10.104;2023-04-24T10:31:02;7.85;;;6.53;;
22270;SDS011;11304;53.520;10.104;2023-04-24T10:33:29;9.70;;;7.13;;
22270;SDS011;11304;53.520;10.104;2023-04-24T10:35:56;11.20;;;8.00;;
22270;SDS011;11304;53.520;10.104;2023-04-24T10:38:24;8.25;;;7.15;;
22270;SDS011;11304;53.520;10.104;2023-04-24T10:40:54;9.65;;;8.02;;
22270;SDS011;11304;53.520;10.104;2023-04-24T10:43:32;11.10;;;7.90;;
22270;SDS011;11304;53.520;10.104;2023-04-24T10:46:02;10.65;;;7.78;;
22270;SDS011;11304;53.520;10.104;2023-04-24T10:48:30;9.95;;;7.68;;
22270;SDS011;11304;53.520;10.104;2023-04-24T10:50:57;11.23;;;8.40;;
22270;SDS011;11304;53.520;10.104;2023-04-24T10:53:24;11.32;;;7.80;;
22270;SDS011;11304;53.520;10.104;2023-04-24T10:58:24;13.70;;;8.18;;
22270;SDS011;11304;53.520;10.104;2023-04-24T11:01:02;9.30;;;8.35;;
22270;SDS011;11304;53.520;10.104;2023-04-24T11:03:32;13.00;;;7.60;;
22270;SDS011;11304;53.520;10.104;2023-04-24T11:06:00;10.15;;;7.75;;
22270;SDS011;11304;53.520;10.104;2023-04-24T11:08:29;11.68;;;8.10;;
22270;SDS011;11304;53.520;10.104;2023-04-24T11:13:24;11.55;;;8.00;;
22270;SDS011;11304;53.520;10.104;2023-04-24T11:29:46;11.05;;;7.53;;
22270;SDS011;11304;53.520;10.104;2023-04-24T11:37:36;9.50;;;7.80;;
22270;SDS011;11304;53.520;10.104;2023-04-24T11:40:07;9.70;;;6.95;;
22270;SDS011;11304;53.520;10.104;2023-04-24T11:42:38;10.23;;;7.43;;
22270;SDS011;11304;53.520;10.104;2023-04-24T11:47:35;7.90;;;6.15;;
22270;SDS011;11304;53.520;10.104;2023-04-24T11:50:00;9.13;;;6.50;;
22270;SDS011;11304;53.520;10.104;2023-04-24T11:52:28;8.95;;;6.40;;
22270;SDS011;11304;53.520;10.104;2023-04-24T11:54:55;9.02;;;6.30;;
22270;SDS011;11304;53.520;10.104;2023-04-24T11:57:21;10.50;;;5.72;;
22270;SDS011;11304;53.520;10.104;2023-04-24T11:59:49;6.63;;;5.63;;
22270;SDS011;11304;53.520;10.104;2023-04-24T12:02:23;9.00;;;5.68;;
22270;SDS011;11304;53.520;10.104;2023-04-24T12:04:51;6.65;;;5.05;;
22270;SDS011;11304;53.520;10.104;2023-04-24T12:07:21;6.78;;;5.38;;
22270;SDS011;11304;53.520;10.104;2023-04-24T12:09:49;10.13;;;5.50;;
22270;SDS011;11304;53.520;10.104;2023-04-24T12:12:21;6.45;;;5.00;;
22270;SDS011;11304;53.520;10.104;2023-04-24T12:14:55;6.80;;;4.75;;
22270;SDS011;11304;53.520;10.104;2023-04-24T12:17:28;6.43;;;4.80;;
22270;SDS011;11304;53.520;10.104;2023-04-24T12:20:00;5.70;;;4.15;;
22270;SDS011;11304;53.520;10.104;2023-04-24T12:22:27;6.60;;;4.15;;
22270;SDS011;11304;53.520;10.104;2023-04-24T12:25:09;4.68;;;3.90;;
22270;SDS011;11304;53.520;10.104;2023-04-24T12:30:03;4.93;;;3.95;;
22270;SDS011;11304;53.520;10.104;2023-04-24T12:32:31;5.30;;;4.40;;
22270;SDS011;11304;53.520;10.104;2023-04-24T12:34:57;5.63;;;4.40;;
22270;SDS011;11304;53.520;10.104;2023-04-24T12:37:24;5.05;;;4.00;;
22270;SDS011;11304;53.520;10.104;2023-04-24T12:40:00;5.95;;;4.63;;
22270;SDS011;11304;53.520;10.104;2023-04-24T12:42:29;7.07;;;4.82;;
22270;SDS011;11304;53.520;10.104;2023-04-24T12:44:59;7.00;;;4.53;;
22270;SDS011;11304;53.520;10.104;2023-04-24T12:47:30;7.75;;;4.75;;
22270;SDS011;11304;53.520;10.104;2023-04-24T12:49:56;8.10;;;5.13;;
22270;SDS011;11304;53.520;10.104;2023-04-24T12:52:23;6.38;;;4.88;;
22270;SDS011;11304;53.520;10.104;2023-04-24T12:54:50;6.80;;;4.95;;
22270;SDS011;11304;53.520;10.104;2023-04-24T12:57:20;5.38;;;4.68;;
22270;SDS011;11304;53.520;10.104;2023-04-24T12:59:46;7.35;;;4.20;;
22270;SDS011;11304;53.520;10.104;2023-04-24T13:02:12;4.07;;;3.55;;
22270;SDS011;11304;53.520;10.104;2023-04-24T13:04:38;3.80;;;3.33;;
22270;SDS011;11304;53.520;10.104;2023-04-24T13:07:04;4.53;;;3.53;;
22270;SDS011;11304;53.520;10.104;2023-04-24T13:09:30;5.68;;;3.70;;
22270;SDS011;11304;53.520;10.104;2023-04-24T13:11:56;4.45;;;3.45;;
22270;SDS011;11304;53.520;10.104;2023-04-24T13:14:22;4.35;;;3.20;;
22270;SDS011;11304;53.520;10.104;2023-04-24T13:16:48;6.60;;;3.15;;
22270;SDS011;11304;53.520;10.104;2023-04-24T13:19:14;4.18;;;3.20;;
22270;SDS011;11304;53.520;10.104;2023-04-24T13:21:40;4.97;;;3.40;;
22270;SDS011;11304;53.520;10.104;2023-04-24T13:24:06;7.75;;;3.78;;
22270;SDS011;11304;53.520;10.104;2023-04-24T13:26:32;4.05;;;3.60;;
22270;SDS011;11304;53.520;10.104;2023-04-24T13:28:58;7.72;;;4.13;;
22270;SDS011;11304;53.520;10.104;2023-04-24T13:31:24;4.15;;;3.30;;
22270;SDS011;11304;53.520;10.104;2023-04-24T13:33:50;4.95;;;3.80;;
22270;SDS011;11304;53.520;10.104;2023-04-24T13:36:16;4.15;;;3.30;;
22270;SDS011;11304;53.520;10.104;2023-04-24T13:38:42;3.25;;;2.95;;
22270;SDS011;11304;53.520;10.104;2023-04-24T13:43:36;6.03;;;3.13;;
22270;SDS011;11304;53.520;10.104;2023-04-24T13:46:02;4.05;;;3.10;;
22270;SDS011;11304;53.520;10.104;2023-04-24T13:48:29;3.40;;;3.05;;
22270;SDS011;11304;53.520;10.104;2023-04-24T13:50:55;4.70;;;3.15;;
22270;SDS011;11304;53.520;10.104;2023-04-24T13:53:21;4.93;;;2.78;;
22270;SDS011;11304;53.520;10.104;2023-04-24T13:55:46;5.00;;;3.35;;
22270;SDS011;11304;53.520;10.104;2023-04-24T13:58:12;4.88;;;3.13;;
22270;SDS011;11304;53.520;10.104;2023-04-24T14:00:38;5.57;;;3.40;;
22270;SDS011;11304;53.520;10.104;2023-04-24T14:03:04;3.28;;;2.78;;
22270;SDS011;11304;53.520;10.104;2023-04-24T14:05:30;3.47;;;2.83;;
22270;SDS011;11304;53.520;10.104;2023-04-24T14:07:55;3.75;;;3.03;;
22270;SDS011;11304;53.520;10.104;2023-04-24T14:10:21;4.63;;;3.40;;
22270;SDS011;11304;53.520;10.104;2023-04-24T14:12:47;4.60;;;3.45;;
22270;SDS011;11304;53.520;10.104;2023-04-24T14:15:13;3.95;;;3.53;;
22270;SDS011;11304;53.520;10.104;2023-04-24T14:17:39;5.70;;;4.20;;
22270;SDS011;11304;53.520;10.104;2023-04-24T14:20:05;4.65;;;4.15;;
22270;SDS011;11304;53.520;10.104;2023-04-24T14:22:31;4.18;;;3.78;;
22270;SDS011;11304;53.520;10.104;2023-04-24T14:24:57;4.85;;;4.07;;
22270;SDS011;11304;53.520;10.104;2023-04-24T14:27:24;6.50;;;4.13;;
22270;SDS011;11304;53.520;10.104;2023-04-24T14:29:50;5.53;;;4.18;;
22270;SDS011;11304;53.520;10.104;2023-04-24T14:32:15;4.68;;;3.95;;
22270;SDS011;11304;53.520;10.104;2023-04-24T14:34:41;5.72;;;4.72;;
22270;SDS011;11304;53.520;10.104;2023-04-24T14:37:07;5.18;;;3.92;;
22270;SDS011;11304;53.520;10.104;2023-04-24T14:39:33;5.18;;;3.55;;
22270;SDS011;11304;53.520;10.104;2023-04-24T14:41:58;4.78;;;3.42;;
22270;SDS011;11304;53.520;10.104;2023-04-24T14:44:25;7.60;;;5.70;;
22270;SDS011;11304;53.520;10.104;2023-04-24T14:46:51;6.35;;;5.40;;
22270;SDS011;11304;53.520;10.104;2023-04-24T14:49:16;3.38;;;2.78;;
22270;SDS011;11304;53.520;10.104;2023-04-24T14:51:42;5.38;;;3.25;;
22270;SDS011;11304;53.520;10.104;2023-04-24T14:54:08;3.45;;;2.85;;
22270;SDS011;11304;53.520;10.104;2023-04-24T14:56:34;4.10;;;3.40;;
22270;SDS011;11304;53.520;10.104;2023-04-24T14:59:00;3.60;;;3.30;;
22270;SDS011;11304;53.520;10.104;2023-04-24T15:01:26;6.20;;;3.92;;
22270;SDS011;11304;53.520;10.104;2023-04-24T15:03:51;6.10;;;4.18;;
22270;SDS011;11304;53.520;10.104;2023-04-24T15:06:17;5.15;;;4.35;;